sensor_id;sensor_type;location;lat;lon;timestamp;P1;durP1;ratioP1;P2;durP2;ratioP2
35975;SDS011;22055;0.000;0.000;2022-08-21T00:01:54;1.50;;;1.40;;
35975;SDS011;22055;0.000;0.000;2022-08-21T00:04:21;1.60;;;1.40;;
35975;SDS011;22055;0.000;0.000;2022-08-21T00:06:47;2.08;;;1.70;;
35975;SDS011;22055;0.000;0.000;2022-08-21T00:09:13;1.33;;;1.23;;
35975;SDS011;22055;0.000;0.000;2022-08-21T00:11:39;1.38;;;1.27;;
35975;SDS011;22055;0.000;0.000;2022-08-21T00:14:07;1.85;;;1.35;;
35975;SDS011;22055;0.000;0.000;2022-08-21T00:16:33;1.60;;;1.50;;
35975;SDS011;22055;0.000;0.000;2022-08-21T00:18:59;1.50;;;1.40;;
35975;SDS011;22055;0.000;0.000;2022-08-21T00:21:26;1.33;;;1.23;;
35975;SDS011;22055;0.000;0.000;2022-08-21T00:23:52;1.35;;;1.25;;
35975;SDS011;22055;0.000;0.000;2022-08-21T00:26:18;1.35;;;1.25;;
35975;SDS011;22055;0.000;0.000;2022-08-21T00:28:44;1.30;;;1.20;;
35975;SDS011;22055;0.000;0.000;2022-08-21T00:31:11;1.58;;;1.48;;
35975;SDS011;22055;0.000;0.000;2022-08-21T00:33:38;1.70;;;1.60;;
35975;SDS011;22055;0.000;0.000;2022-08-21T00:36:04;1.58;;;1.48;;
35975;SDS011;22055;0.000;0.000;2022-08-21T00:38:30;1.52;;;1.30;;
35975;SDS011;22055;0.000;0.000;2022-08-21T00:40:58;1.35;;;1.25;;
35975;SDS011;22055;0.000;0.000;2022-08-21T00:43:26;1.30;;;1.20;;
35975;SDS011;22055;0.000;0.000;2022-08-21T00:45:53;2.45;;;1.70;;
35975;SDS011;22055;0.000;0.000;2022-08-21T00:48:19;1.58;;;1.30;;
35975;SDS011;22055;0.000;0.000;2022-08-21T00:50:50;1.48;;;1.38;;
35975;SDS011;22055;0.000;0.000;2022-08-21T00:53:18;1.50;;;1.38;;
35975;SDS011;22055;0.000;0.000;2022-08-21T00:55:44;1.42;;;1.33;;
35975;SDS011;22055;0.000;0.000;2022-08-21T00:58:11;1.15;;;1.10;;
35975;SDS011;22055;0.000;0.000;2022-08-21T01:00:39;1.30;;;1.20;;
35975;SDS011;22055;0.000;0.000;2022-08-21T01:03:09;1.50;;;1.40;;
35975;SDS011;22055;0.000;0.000;2022-08-21T01:05:36;2.45;;;1.52;;
35975;SDS011;22055;0.000;0.000;2022-08-21T01:08:03;1.48;;;1.38;;
35975;SDS011;22055;0.000;0.000;2022-08-21T01:10:30;1.40;;;1.30;;
35975;SDS011;22055;0.000;0.000;2022-08-21T01:12:56;1.30;;;1.20;;
35975;SDS011;22055;0.000;0.000;2022-08-21T01:15:24;1.40;;;1.30;;
35975;SDS011;22055;0.000;0.000;2022-08-21T01:17:52;1.60;;;1.50;;
35975;SDS011;22055;0.000;0.000;2022-08-21T01:20:18;1.40;;;1.30;;
35975;SDS011;22055;0.000;0.000;2022-08-21T01:22:45;1.30;;;1.20;;
35975;SDS011;22055;0.000;0.000;2022-08-21T01:25:14;1.40;;;1.30;;
35975;SDS011;22055;0.000;0.000;2022-08-21T01:27:41;1.50;;;1.40;;
35975;SDS011;22055;0.000;0.000;2022-08-21T01:30:08;1.50;;;1.40;;
35975;SDS011;22055;0.000;0.000;2022-08-21T01:32:36;1.40;;;1.30;;
35975;SDS011;22055;0.000;0.000;2022-08-21T01:35:02;1.20;;;1.10;;
35975;SDS011;22055;0.000;0.000;2022-08-21T01:37:29;1.08;;;1.08;;
35975;SDS011;22055;0.000;0.000;2022-08-21T01:39:55;1.05;;;1.05;;
35975;SDS011;22055;0.000;0.000;2022-08-21T01:42:21;1.50;;;1.40;;
35975;SDS011;22055;0.000;0.000;2022-08-21T01:44:47;1.30;;;1.20;;
35975;SDS011;22055;0.000;0.000;2022-08-21T01:47:14;1.05;;;1.00;;
35975;SDS011;22055;0.000;0.000;2022-08-21T01:49:40;1.50;;;1.40;;
35975;SDS011;22055;0.000;0.000;2022-08-21T01:52:08;2.30;;;1.42;;
35975;SDS011;22055;0.000;0.000;2022-08-21T01:54:34;1.60;;;1.50;;
35975;SDS011;22055;0.000;0.000;2022-08-21T01:57:01;1.40;;;1.30;;
35975;SDS011;22055;0.000;0.000;2022-08-21T01:59:28;1.60;;;1.50;;
35975;SDS011;22055;0.000;0.000;2022-08-21T02:01:55;1.40;;;1.30;;
35975;SDS011;22055;0.000;0.000;2022-08-21T02:04:21;3.90;;;1.48;;
35975;SDS011;22055;0.000;0.000;2022-08-21T02:06:48;1.60;;;1.50;;
35975;SDS011;22055;0.000;0.000;2022-08-21T02:09:14;2.15;;;1.17;;
35975;SDS011;22055;0.000;0.000;2022-08-21T02:11:41;1.40;;;1.30;;
35975;SDS011;22055;0.000;0.000;2022-08-21T02:14:08;1.20;;;1.20;;
35975;SDS011;22055;0.000;0.000;2022-08-21T02:16:34;1.33;;;1.20;;
35975;SDS011;22055;0.000;0.000;2022-08-21T02:19:00;1.25;;;1.15;;
35975;SDS011;22055;0.000;0.000;2022-08-21T02:21:26;1.30;;;1.17;;
35975;SDS011;22055;0.000;0.000;2022-08-21T02:23:53;1.50;;;1.40;;
35975;SDS011;22055;0.000;0.000;2022-08-21T02:26:19;1.40;;;1.30;;
35975;SDS011;22055;0.000;0.000;2022-08-21T02:28:45;1.48;;;1.38;;
35975;SDS011;22055;0.000;0.000;2022-08-21T02:31:11;1.30;;;1.20;;
35975;SDS011;22055;0.000;0.000;2022-08-21T02:33:37;1.20;;;1.10;;
35975;SDS011;22055;0.000;0.000;2022-08-21T02:36:05;1.02;;;1.00;;
35975;SDS011;22055;0.000;0.000;2022-08-21T02:38:32;1.30;;;1.20;;
35975;SDS011;22055;0.000;0.000;2022-08-21T02:40:59;1.38;;;1.30;;
35975;SDS011;22055;0.000;0.000;2022-08-21T02:43:27;1.42;;;1.33;;
35975;SDS011;22055;0.000;0.000;2022-08-21T02:45:53;1.58;;;1.10;;
35975;SDS011;22055;0.000;0.000;2022-08-21T02:48:21;1.25;;;1.15;;
35975;SDS011;22055;0.000;0.000;2022-08-21T02:50:52;1.02;;;1.02;;
35975;SDS011;22055;0.000;0.000;2022-08-21T02:53:18;1.30;;;1.20;;
35975;SDS011;22055;0.000;0.000;2022-08-21T02:55:46;1.40;;;1.27;;
35975;SDS011;22055;0.000;0.000;2022-08-21T02:58:13;0.88;;;0.88;;
35975;SDS011;22055;0.000;0.000;2022-08-21T03:00:39;1.40;;;1.30;;
35975;SDS011;22055;0.000;0.000;2022-08-21T03:03:06;1.30;;;1.20;;
35975;SDS011;22055;0.000;0.000;2022-08-21T03:05:33;1.13;;;1.10;;
35975;SDS011;22055;0.000;0.000;2022-08-21T03:08:00;1.00;;;1.00;;
35975;SDS011;22055;0.000;0.000;2022-08-21T03:10:27;1.30;;;1.20;;
35975;SDS011;22055;0.000;0.000;2022-08-21T03:12:53;1.30;;;1.20;;
35975;SDS011;22055;0.000;0.000;2022-08-21T03:15:21;1.65;;;1.00;;
35975;SDS011;22055;0.000;0.000;2022-08-21T03:17:48;1.55;;;1.17;;
35975;SDS011;22055;0.000;0.000;2022-08-21T03:20:16;1.20;;;1.10;;
35975;SDS011;22055;0.000;0.000;2022-08-21T03:22:43;0.90;;;0.90;;
35975;SDS011;22055;0.000;0.000;2022-08-21T03:25:09;1.30;;;1.20;;
35975;SDS011;22055;0.000;0.000;2022-08-21T03:27:35;1.30;;;1.20;;
35975;SDS011;22055;0.000;0.000;2022-08-21T03:30:03;1.13;;;1.13;;
35975;SDS011;22055;0.000;0.000;2022-08-21T03:32:29;1.10;;;1.10;;
35975;SDS011;22055;0.000;0.000;2022-08-21T03:34:56;1.60;;;1.23;;
35975;SDS011;22055;0.000;0.000;2022-08-21T03:37:23;1.33;;;1.23;;
35975;SDS011;22055;0.000;0.000;2022-08-21T03:39:50;1.15;;;1.13;;
35975;SDS011;22055;0.000;0.000;2022-08-21T03:42:16;1.30;;;1.10;;
35975;SDS011;22055;0.000;0.000;2022-08-21T03:44:42;1.15;;;1.15;;
35975;SDS011;22055;0.000;0.000;2022-08-21T03:47:08;1.30;;;1.20;;
35975;SDS011;22055;0.000;0.000;2022-08-21T03:49:35;1.20;;;1.10;;
35975;SDS011;22055;0.000;0.000;2022-08-21T03:52:02;1.23;;;1.20;;
35975;SDS011;22055;0.000;0.000;2022-08-21T03:54:29;1.30;;;1.20;;
35975;SDS011;22055;0.000;0.000;2022-08-21T03:56:55;1.30;;;1.20;;
35975;SDS011;22055;0.000;0.000;2022-08-21T03:59:21;1.17;;;1.00;;
35975;SDS011;22055;0.000;0.000;2022-08-21T04:01:55;0.80;;;0.80;;
35975;SDS011;22055;0.000;0.000;2022-08-21T04:04:21;1.55;;;1.10;;
35975;SDS011;22055;0.000;0.000;2022-08-21T04:06:47;1.13;;;0.95;;
35975;SDS011;22055;0.000;0.000;2022-08-21T04:09:15;1.10;;;1.00;;
35975;SDS011;22055;0.000;0.000;2022-08-21T04:11:41;1.33;;;1.23;;
35975;SDS011;22055;0.000;0.000;2022-08-21T04:14:07;1.30;;;1.20;;
35975;SDS011;22055;0.000;0.000;2022-08-21T04:16:33;1.40;;;1.30;;
35975;SDS011;22055;0.000;0.000;2022-08-21T04:18:59;0.90;;;0.90;;
35975;SDS011;22055;0.000;0.000;2022-08-21T04:21:26;1.20;;;1.10;;
35975;SDS011;22055;0.000;0.000;2022-08-21T04:23:53;1.02;;;1.02;;
35975;SDS011;22055;0.000;0.000;2022-08-21T04:26:20;1.05;;;0.98;;
35975;SDS011;22055;0.000;0.000;2022-08-21T04:28:46;0.88;;;0.75;;
35975;SDS011;22055;0.000;0.000;2022-08-21T04:31:12;0.93;;;0.93;;
35975;SDS011;22055;0.000;0.000;2022-08-21T04:33:38;1.15;;;1.10;;
35975;SDS011;22055;0.000;0.000;2022-08-21T04:36:05;0.90;;;0.90;;
35975;SDS011;22055;0.000;0.000;2022-08-21T04:38:32;1.27;;;1.08;;
35975;SDS011;22055;0.000;0.000;2022-08-21T04:40:58;1.52;;;1.38;;
35975;SDS011;22055;0.000;0.000;2022-08-21T04:43:24;1.10;;;1.02;;
35975;SDS011;22055;0.000;0.000;2022-08-21T04:45:51;1.45;;;1.20;;
35975;SDS011;22055;0.000;0.000;2022-08-21T04:48:19;1.65;;;1.20;;
35975;SDS011;22055;0.000;0.000;2022-08-21T04:50:49;1.30;;;1.20;;
35975;SDS011;22055;0.000;0.000;2022-08-21T04:53:18;1.52;;;1.30;;
35975;SDS011;22055;0.000;0.000;2022-08-21T04:55:46;1.60;;;1.50;;
35975;SDS011;22055;0.000;0.000;2022-08-21T04:58:13;1.15;;;1.05;;
35975;SDS011;22055;0.000;0.000;2022-08-21T05:00:40;1.50;;;1.05;;
35975;SDS011;22055;0.000;0.000;2022-08-21T05:03:07;1.20;;;1.10;;
35975;SDS011;22055;0.000;0.000;2022-08-21T05:05:33;1.33;;;1.20;;
35975;SDS011;22055;0.000;0.000;2022-08-21T05:08:01;1.17;;;1.08;;
35975;SDS011;22055;0.000;0.000;2022-08-21T05:10:27;1.30;;;1.20;;
35975;SDS011;22055;0.000;0.000;2022-08-21T05:12:53;1.55;;;1.15;;
35975;SDS011;22055;0.000;0.000;2022-08-21T05:15:20;1.13;;;1.02;;
35975;SDS011;22055;0.000;0.000;2022-08-21T05:17:47;1.40;;;1.30;;
35975;SDS011;22055;0.000;0.000;2022-08-21T05:20:13;1.55;;;1.45;;
35975;SDS011;22055;0.000;0.000;2022-08-21T05:22:39;1.27;;;1.17;;
35975;SDS011;22055;0.000;0.000;2022-08-21T05:25:06;1.13;;;1.10;;
35975;SDS011;22055;0.000;0.000;2022-08-21T05:27:32;1.77;;;1.33;;
35975;SDS011;22055;0.000;0.000;2022-08-21T05:29:59;1.30;;;1.20;;
35975;SDS011;22055;0.000;0.000;2022-08-21T05:32:25;1.10;;;1.05;;
35975;SDS011;22055;0.000;0.000;2022-08-21T05:34:52;1.20;;;1.10;;
35975;SDS011;22055;0.000;0.000;2022-08-21T05:37:19;1.25;;;1.10;;
35975;SDS011;22055;0.000;0.000;2022-08-21T05:39:45;1.27;;;1.15;;
35975;SDS011;22055;0.000;0.000;2022-08-21T05:42:11;1.60;;;1.23;;
35975;SDS011;22055;0.000;0.000;2022-08-21T05:44:37;1.10;;;1.05;;
35975;SDS011;22055;0.000;0.000;2022-08-21T05:47:04;1.83;;;1.25;;
35975;SDS011;22055;0.000;0.000;2022-08-21T05:49:31;1.00;;;1.00;;
35975;SDS011;22055;0.000;0.000;2022-08-21T05:51:57;1.15;;;1.05;;
35975;SDS011;22055;0.000;0.000;2022-08-21T05:54:23;2.67;;;1.60;;
35975;SDS011;22055;0.000;0.000;2022-08-21T05:56:50;1.42;;;1.33;;
35975;SDS011;22055;0.000;0.000;2022-08-21T05:59:16;1.42;;;1.27;;
35975;SDS011;22055;0.000;0.000;2022-08-21T06:01:43;1.10;;;1.00;;
35975;SDS011;22055;0.000;0.000;2022-08-21T06:04:10;1.75;;;1.17;;
35975;SDS011;22055;0.000;0.000;2022-08-21T06:06:36;1.40;;;1.30;;
35975;SDS011;22055;0.000;0.000;2022-08-21T06:09:03;2.13;;;1.33;;
35975;SDS011;22055;0.000;0.000;2022-08-21T06:11:30;1.58;;;1.10;;
35975;SDS011;22055;0.000;0.000;2022-08-21T06:13:56;1.48;;;1.23;;
35975;SDS011;22055;0.000;0.000;2022-08-21T06:16:24;1.50;;;1.20;;
35975;SDS011;22055;0.000;0.000;2022-08-21T06:18:51;1.10;;;1.00;;
35975;SDS011;22055;0.000;0.000;2022-08-21T06:21:17;3.00;;;1.30;;
35975;SDS011;22055;0.000;0.000;2022-08-21T06:23:44;2.00;;;1.20;;
35975;SDS011;22055;0.000;0.000;2022-08-21T06:26:11;1.35;;;1.20;;
35975;SDS011;22055;0.000;0.000;2022-08-21T06:28:38;1.20;;;1.05;;
35975;SDS011;22055;0.000;0.000;2022-08-21T06:31:13;1.30;;;1.20;;
35975;SDS011;22055;0.000;0.000;2022-08-21T06:33:40;1.30;;;1.17;;
35975;SDS011;22055;0.000;0.000;2022-08-21T06:36:06;1.13;;;1.10;;
35975;SDS011;22055;0.000;0.000;2022-08-21T06:38:32;1.30;;;1.20;;
35975;SDS011;22055;0.000;0.000;2022-08-21T06:40:59;2.45;;;1.20;;
35975;SDS011;22055;0.000;0.000;2022-08-21T06:43:25;1.50;;;1.40;;
35975;SDS011;22055;0.000;0.000;2022-08-21T06:45:52;1.30;;;1.20;;
35975;SDS011;22055;0.000;0.000;2022-08-21T06:48:18;1.23;;;1.10;;
35975;SDS011;22055;0.000;0.000;2022-08-21T06:50:44;1.20;;;1.10;;
35975;SDS011;22055;0.000;0.000;2022-08-21T06:53:11;1.52;;;1.15;;
35975;SDS011;22055;0.000;0.000;2022-08-21T06:55:38;1.45;;;1.13;;
35975;SDS011;22055;0.000;0.000;2022-08-21T06:58:04;1.63;;;1.30;;
35975;SDS011;22055;0.000;0.000;2022-08-21T07:00:32;1.02;;;0.90;;
35975;SDS011;22055;0.000;0.000;2022-08-21T07:02:58;1.13;;;1.02;;
35975;SDS011;22055;0.000;0.000;2022-08-21T07:05:25;1.33;;;1.13;;
35975;SDS011;22055;0.000;0.000;2022-08-21T07:07:52;1.00;;;0.90;;
35975;SDS011;22055;0.000;0.000;2022-08-21T07:10:18;1.17;;;1.08;;
35975;SDS011;22055;0.000;0.000;2022-08-21T07:12:44;1.00;;;1.00;;
35975;SDS011;22055;0.000;0.000;2022-08-21T07:15:10;1.48;;;1.13;;
35975;SDS011;22055;0.000;0.000;2022-08-21T07:17:36;1.25;;;1.15;;
35975;SDS011;22055;0.000;0.000;2022-08-21T07:20:03;1.50;;;1.23;;
35975;SDS011;22055;0.000;0.000;2022-08-21T07:22:30;1.30;;;1.20;;
35975;SDS011;22055;0.000;0.000;2022-08-21T07:24:56;2.25;;;1.27;;
35975;SDS011;22055;0.000;0.000;2022-08-21T07:27:22;2.75;;;0.98;;
35975;SDS011;22055;0.000;0.000;2022-08-21T07:29:48;1.00;;;1.00;;
35975;SDS011;22055;0.000;0.000;2022-08-21T07:32:14;0.82;;;0.82;;
35975;SDS011;22055;0.000;0.000;2022-08-21T07:34:41;2.05;;;1.00;;
35975;SDS011;22055;0.000;0.000;2022-08-21T07:37:07;1.20;;;1.10;;
35975;SDS011;22055;0.000;0.000;2022-08-21T07:39:33;0.68;;;0.68;;
35975;SDS011;22055;0.000;0.000;2022-08-21T07:42:00;1.35;;;1.20;;
35975;SDS011;22055;0.000;0.000;2022-08-21T07:44:28;1.15;;;1.02;;
35975;SDS011;22055;0.000;0.000;2022-08-21T07:46:54;1.02;;;0.90;;
35975;SDS011;22055;0.000;0.000;2022-08-21T07:49:20;1.02;;;1.00;;
35975;SDS011;22055;0.000;0.000;2022-08-21T07:51:46;1.15;;;0.90;;
35975;SDS011;22055;0.000;0.000;2022-08-21T07:54:12;1.33;;;1.05;;
35975;SDS011;22055;0.000;0.000;2022-08-21T07:56:38;0.90;;;0.90;;
35975;SDS011;22055;0.000;0.000;2022-08-21T07:59:04;1.30;;;0.90;;
35975;SDS011;22055;0.000;0.000;2022-08-21T08:01:31;0.90;;;0.90;;
35975;SDS011;22055;0.000;0.000;2022-08-21T08:03:57;2.58;;;0.90;;
35975;SDS011;22055;0.000;0.000;2022-08-21T08:06:23;1.15;;;1.08;;
35975;SDS011;22055;0.000;0.000;2022-08-21T08:08:51;1.65;;;1.10;;
35975;SDS011;22055;0.000;0.000;2022-08-21T08:11:17;1.13;;;1.02;;
35975;SDS011;22055;0.000;0.000;2022-08-21T08:13:47;1.00;;;0.88;;
35975;SDS011;22055;0.000;0.000;2022-08-21T08:16:14;1.00;;;1.00;;
35975;SDS011;22055;0.000;0.000;2022-08-21T08:18:40;1.05;;;1.02;;
35975;SDS011;22055;0.000;0.000;2022-08-21T08:21:08;1.67;;;0.80;;
35975;SDS011;22055;0.000;0.000;2022-08-21T08:23:34;0.82;;;0.82;;
35975;SDS011;22055;0.000;0.000;2022-08-21T08:26:01;1.02;;;1.00;;
35975;SDS011;22055;0.000;0.000;2022-08-21T08:28:28;1.23;;;0.98;;
35975;SDS011;22055;0.000;0.000;2022-08-21T08:30:54;0.98;;;0.98;;
35975;SDS011;22055;0.000;0.000;2022-08-21T08:33:20;0.85;;;0.85;;
35975;SDS011;22055;0.000;0.000;2022-08-21T08:35:48;1.00;;;1.00;;
35975;SDS011;22055;0.000;0.000;2022-08-21T08:38:15;0.80;;;0.80;;
35975;SDS011;22055;0.000;0.000;2022-08-21T08:40:46;1.15;;;0.98;;
35975;SDS011;22055;0.000;0.000;2022-08-21T08:43:13;1.38;;;1.05;;
35975;SDS011;22055;0.000;0.000;2022-08-21T08:45:40;1.08;;;0.98;;
35975;SDS011;22055;0.000;0.000;2022-08-21T08:48:09;0.75;;;0.75;;
35975;SDS011;22055;0.000;0.000;2022-08-21T08:50:39;1.20;;;1.10;;
35975;SDS011;22055;0.000;0.000;2022-08-21T08:53:23;1.08;;;0.98;;
35975;SDS011;22055;0.000;0.000;2022-08-21T08:55:51;1.08;;;1.08;;
35975;SDS011;22055;0.000;0.000;2022-08-21T08:58:25;0.90;;;0.90;;
35975;SDS011;22055;0.000;0.000;2022-08-21T09:00:53;0.90;;;0.90;;
35975;SDS011;22055;0.000;0.000;2022-08-21T09:03:21;0.82;;;0.70;;
35975;SDS011;22055;0.000;0.000;2022-08-21T09:05:49;1.02;;;0.90;;
35975;SDS011;22055;0.000;0.000;2022-08-21T09:10:57;1.33;;;0.93;;
35975;SDS011;22055;0.000;0.000;2022-08-21T09:13:36;1.48;;;0.90;;
35975;SDS011;22055;0.000;0.000;2022-08-21T09:21:11;1.10;;;1.10;;
35975;SDS011;22055;0.000;0.000;2022-08-21T09:23:47;0.80;;;0.80;;
35975;SDS011;22055;0.000;0.000;2022-08-21T09:26:19;1.20;;;1.10;;
35975;SDS011;22055;0.000;0.000;2022-08-21T09:28:49;1.00;;;1.00;;
35975;SDS011;22055;0.000;0.000;2022-08-21T09:31:22;1.20;;;0.70;;
35975;SDS011;22055;0.000;0.000;2022-08-21T09:33:49;0.93;;;0.80;;
35975;SDS011;22055;0.000;0.000;2022-08-21T09:36:34;1.05;;;0.95;;
35975;SDS011;22055;0.000;0.000;2022-08-21T09:39:02;0.90;;;0.90;;
35975;SDS011;22055;0.000;0.000;2022-08-21T09:41:30;1.08;;;1.00;;
35975;SDS011;22055;0.000;0.000;2022-08-21T09:43:56;0.80;;;0.80;;
35975;SDS011;22055;0.000;0.000;2022-08-21T09:46:24;0.90;;;0.90;;
35975;SDS011;22055;0.000;0.000;2022-08-21T09:48:53;1.73;;;0.77;;
35975;SDS011;22055;0.000;0.000;2022-08-21T09:51:32;0.77;;;0.77;;
35975;SDS011;22055;0.000;0.000;2022-08-21T09:56:35;0.80;;;0.80;;
35975;SDS011;22055;0.000;0.000;2022-08-21T10:01:50;1.20;;;0.90;;
35975;SDS011;22055;0.000;0.000;2022-08-21T10:04:21;0.98;;;0.98;;
35975;SDS011;22055;0.000;0.000;2022-08-21T10:06:48;0.98;;;0.90;;
35975;SDS011;22055;0.000;0.000;2022-08-21T10:09:16;0.90;;;0.90;;
35975;SDS011;22055;0.000;0.000;2022-08-21T10:11:47;0.70;;;0.70;;
35975;SDS011;22055;0.000;0.000;2022-08-21T10:19:57;0.82;;;0.82;;
35975;SDS011;22055;0.000;0.000;2022-08-21T10:22:29;1.00;;;0.98;;
35975;SDS011;22055;0.000;0.000;2022-08-21T10:25:11;1.05;;;0.98;;
35975;SDS011;22055;0.000;0.000;2022-08-21T10:30:36;0.95;;;0.95;;
35975;SDS011;22055;0.000;0.000;2022-08-21T10:41:11;1.15;;;0.90;;
35975;SDS011;22055;0.000;0.000;2022-08-21T10:43:44;1.00;;;0.90;;
35975;SDS011;22055;0.000;0.000;2022-08-21T10:48:59;0.80;;;0.80;;
35975;SDS011;22055;0.000;0.000;2022-08-21T10:51:47;0.60;;;0.60;;
35975;SDS011;22055;0.000;0.000;2022-08-21T10:54:37;0.90;;;0.85;;
35975;SDS011;22055;0.000;0.000;2022-08-21T10:57:07;0.88;;;0.85;;
35975;SDS011;22055;0.000;0.000;2022-08-21T10:59:47;1.02;;;1.00;;
35975;SDS011;22055;0.000;0.000;2022-08-21T11:02:20;0.65;;;0.65;;
35975;SDS011;22055;0.000;0.000;2022-08-21T11:07:34;0.77;;;0.77;;
35975;SDS011;22055;0.000;0.000;2022-08-21T11:10:12;1.20;;;0.85;;
35975;SDS011;22055;0.000;0.000;2022-08-21T11:12:41;1.02;;;0.90;;
35975;SDS011;22055;0.000;0.000;2022-08-21T11:15:18;1.08;;;1.08;;
35975;SDS011;22055;0.000;0.000;2022-08-21T11:17:52;1.13;;;1.02;;
35975;SDS011;22055;0.000;0.000;2022-08-21T11:20:38;1.20;;;1.10;;
35975;SDS011;22055;0.000;0.000;2022-08-21T11:23:07;0.95;;;0.95;;
35975;SDS011;22055;0.000;0.000;2022-08-21T11:25:39;1.77;;;1.00;;
35975;SDS011;22055;0.000;0.000;2022-08-21T11:30:46;1.65;;;1.10;;
35975;SDS011;22055;0.000;0.000;2022-08-21T11:33:26;1.13;;;1.13;;
35975;SDS011;22055;0.000;0.000;2022-08-21T11:35:58;1.15;;;1.00;;
35975;SDS011;22055;0.000;0.000;2022-08-21T11:46:52;0.90;;;0.90;;
35975;SDS011;22055;0.000;0.000;2022-08-21T11:49:31;4.00;;;1.15;;
35975;SDS011;22055;0.000;0.000;2022-08-21T11:52:15;1.00;;;1.00;;
35975;SDS011;22055;0.000;0.000;2022-08-21T11:54:47;0.98;;;0.98;;
35975;SDS011;22055;0.000;0.000;2022-08-21T12:02:30;0.98;;;0.88;;
35975;SDS011;22055;0.000;0.000;2022-08-21T12:05:02;1.02;;;1.00;;
35975;SDS011;22055;0.000;0.000;2022-08-21T12:07:40;1.13;;;1.00;;
35975;SDS011;22055;0.000;0.000;2022-08-21T12:10:11;0.88;;;0.88;;
35975;SDS011;22055;0.000;0.000;2022-08-21T12:12:38;1.02;;;0.93;;
35975;SDS011;22055;0.000;0.000;2022-08-21T12:17:38;0.98;;;0.80;;
35975;SDS011;22055;0.000;0.000;2022-08-21T12:20:22;0.82;;;0.82;;
35975;SDS011;22055;0.000;0.000;2022-08-21T12:22:53;1.27;;;1.08;;
35975;SDS011;22055;0.000;0.000;2022-08-21T12:25:20;2.05;;;0.90;;
35975;SDS011;22055;0.000;0.000;2022-08-21T12:32:53;0.87;;;0.80;;
35975;SDS011;22055;0.000;0.000;2022-08-21T12:35:40;0.90;;;0.90;;
35975;SDS011;22055;0.000;0.000;2022-08-21T12:39:10;1.00;;;0.90;;
35975;SDS011;22055;0.000;0.000;2022-08-21T12:41:05;1.17;;;0.93;;
35975;SDS011;22055;0.000;0.000;2022-08-21T12:43:33;1.05;;;0.98;;
35975;SDS011;22055;0.000;0.000;2022-08-21T12:46:01;1.15;;;0.90;;
35975;SDS011;22055;0.000;0.000;2022-08-21T12:48:39;0.70;;;0.70;;
35975;SDS011;22055;0.000;0.000;2022-08-21T12:53:38;0.73;;;0.73;;
35975;SDS011;22055;0.000;0.000;2022-08-21T12:56:10;0.70;;;0.70;;
35975;SDS011;22055;0.000;0.000;2022-08-21T12:58:39;1.05;;;0.75;;
35975;SDS011;22055;0.000;0.000;2022-08-21T13:01:06;1.13;;;0.80;;
35975;SDS011;22055;0.000;0.000;2022-08-21T13:03:35;0.80;;;0.80;;
35975;SDS011;22055;0.000;0.000;2022-08-21T13:06:05;0.90;;;0.90;;
35975;SDS011;22055;0.000;0.000;2022-08-21T13:08:35;0.82;;;0.82;;
35975;SDS011;22055;0.000;0.000;2022-08-21T13:11:05;1.02;;;0.90;;
35975;SDS011;22055;0.000;0.000;2022-08-21T13:13:32;0.85;;;0.85;;
35975;SDS011;22055;0.000;0.000;2022-08-21T13:16:02;0.90;;;0.90;;
35975;SDS011;22055;0.000;0.000;2022-08-21T13:18:30;0.88;;;0.88;;
35975;SDS011;22055;0.000;0.000;2022-08-21T13:21:07;0.95;;;0.93;;
35975;SDS011;22055;0.000;0.000;2022-08-21T13:23:33;0.65;;;0.63;;
35975;SDS011;22055;0.000;0.000;2022-08-21T13:26:00;1.00;;;1.00;;
35975;SDS011;22055;0.000;0.000;2022-08-21T13:28:34;0.95;;;0.73;;
35975;SDS011;22055;0.000;0.000;2022-08-21T13:31:05;1.10;;;1.10;;
35975;SDS011;22055;0.000;0.000;2022-08-21T13:33:33;0.98;;;0.93;;
35975;SDS011;22055;0.000;0.000;2022-08-21T13:38:35;0.98;;;0.98;;
35975;SDS011;22055;0.000;0.000;2022-08-21T13:41:03;1.45;;;0.93;;
35975;SDS011;22055;0.000;0.000;2022-08-21T13:43:31;1.67;;;0.60;;
35975;SDS011;22055;0.000;0.000;2022-08-21T13:45:57;1.10;;;1.00;;
35975;SDS011;22055;0.000;0.000;2022-08-21T13:48:26;0.88;;;0.88;;
35975;SDS011;22055;0.000;0.000;2022-08-21T13:50:54;1.20;;;1.10;;
35975;SDS011;22055;0.000;0.000;2022-08-21T13:55:49;0.90;;;0.90;;
35975;SDS011;22055;0.000;0.000;2022-08-21T13:58:24;0.80;;;0.80;;
35975;SDS011;22055;0.000;0.000;2022-08-21T14:00:50;0.85;;;0.82;;
35975;SDS011;22055;0.000;0.000;2022-08-21T14:03:33;1.05;;;0.95;;
35975;SDS011;22055;0.000;0.000;2022-08-21T14:06:00;0.75;;;0.75;;
35975;SDS011;22055;0.000;0.000;2022-08-21T14:08:31;1.20;;;1.10;;
35975;SDS011;22055;0.000;0.000;2022-08-21T14:10:58;0.90;;;0.90;;
35975;SDS011;22055;0.000;0.000;2022-08-21T14:13:36;1.10;;;1.00;;
35975;SDS011;22055;0.000;0.000;2022-08-21T14:16:08;0.80;;;0.80;;
35975;SDS011;22055;0.000;0.000;2022-08-21T14:18:43;0.80;;;0.80;;
35975;SDS011;22055;0.000;0.000;2022-08-21T14:21:09;0.90;;;0.90;;
35975;SDS011;22055;0.000;0.000;2022-08-21T14:23:36;0.95;;;0.90;;
35975;SDS011;22055;0.000;0.000;2022-08-21T14:26:04;1.30;;;0.90;;
35975;SDS011;22055;0.000;0.000;2022-08-21T14:28:38;0.95;;;0.85;;
35975;SDS011;22055;0.000;0.000;2022-08-21T14:31:13;1.10;;;1.00;;
35975;SDS011;22055;0.000;0.000;2022-08-21T14:33:39;1.10;;;1.00;;
35975;SDS011;22055;0.000;0.000;2022-08-21T14:36:06;0.73;;;0.73;;
35975;SDS011;22055;0.000;0.000;2022-08-21T14:38:35;0.77;;;0.77;;
35975;SDS011;22055;0.000;0.000;2022-08-21T14:41:04;2.08;;;1.00;;
35975;SDS011;22055;0.000;0.000;2022-08-21T14:43:34;1.23;;;0.90;;
35975;SDS011;22055;0.000;0.000;2022-08-21T14:46:00;0.73;;;0.73;;
35975;SDS011;22055;0.000;0.000;2022-08-21T14:48:27;0.77;;;0.77;;
35975;SDS011;22055;0.000;0.000;2022-08-21T14:50:53;0.80;;;0.80;;
35975;SDS011;22055;0.000;0.000;2022-08-21T14:53:19;1.17;;;0.82;;
35975;SDS011;22055;0.000;0.000;2022-08-21T14:55:45;0.80;;;0.80;;
35975;SDS011;22055;0.000;0.000;2022-08-21T14:58:29;0.70;;;0.70;;
35975;SDS011;22055;0.000;0.000;2022-08-21T15:00:56;0.80;;;0.80;;
35975;SDS011;22055;0.000;0.000;2022-08-21T15:03:23;0.90;;;0.90;;
35975;SDS011;22055;0.000;0.000;2022-08-21T15:05:50;0.70;;;0.70;;
35975;SDS011;22055;0.000;0.000;2022-08-21T15:08:17;0.95;;;0.80;;
35975;SDS011;22055;0.000;0.000;2022-08-21T15:10:43;1.10;;;1.00;;
35975;SDS011;22055;0.000;0.000;2022-08-21T15:13:09;0.80;;;0.80;;
35975;SDS011;22055;0.000;0.000;2022-08-21T15:15:40;0.90;;;0.90;;
35975;SDS011;22055;0.000;0.000;2022-08-21T15:18:06;0.70;;;0.70;;
35975;SDS011;22055;0.000;0.000;2022-08-21T15:20:33;1.20;;;0.90;;
35975;SDS011;22055;0.000;0.000;2022-08-21T15:22:59;0.90;;;0.90;;
35975;SDS011;22055;0.000;0.000;2022-08-21T15:25:25;0.80;;;0.80;;
35975;SDS011;22055;0.000;0.000;2022-08-21T15:27:52;0.95;;;0.90;;
35975;SDS011;22055;0.000;0.000;2022-08-21T15:30:18;1.00;;;0.95;;
35975;SDS011;22055;0.000;0.000;2022-08-21T15:32:44;0.90;;;0.90;;
35975;SDS011;22055;0.000;0.000;2022-08-21T15:35:10;1.30;;;1.20;;
35975;SDS011;22055;0.000;0.000;2022-08-21T15:37:37;0.90;;;0.90;;
35975;SDS011;22055;0.000;0.000;2022-08-21T15:40:03;1.05;;;1.02;;
35975;SDS011;22055;0.000;0.000;2022-08-21T15:42:32;0.75;;;0.75;;
35975;SDS011;22055;0.000;0.000;2022-08-21T15:44:58;0.77;;;0.77;;
35975;SDS011;22055;0.000;0.000;2022-08-21T15:47:31;0.65;;;0.65;;
35975;SDS011;22055;0.000;0.000;2022-08-21T15:49:59;0.80;;;0.80;;
35975;SDS011;22055;0.000;0.000;2022-08-21T15:52:25;0.60;;;0.60;;
35975;SDS011;22055;0.000;0.000;2022-08-21T15:54:51;0.77;;;0.77;;
35975;SDS011;22055;0.000;0.000;2022-08-21T15:57:18;0.80;;;0.80;;
35975;SDS011;22055;0.000;0.000;2022-08-21T15:59:49;0.80;;;0.80;;
35975;SDS011;22055;0.000;0.000;2022-08-21T16:02:21;1.10;;;1.00;;
35975;SDS011;22055;0.000;0.000;2022-08-21T16:04:47;1.10;;;0.98;;
35975;SDS011;22055;0.000;0.000;2022-08-21T16:07:14;0.70;;;0.70;;
35975;SDS011;22055;0.000;0.000;2022-08-21T16:09:40;1.50;;;0.80;;
35975;SDS011;22055;0.000;0.000;2022-08-21T16:12:06;0.70;;;0.70;;
35975;SDS011;22055;0.000;0.000;2022-08-21T16:14:33;0.90;;;0.90;;